sensor_id;sensor_type;location;lat;lon;timestamp;temperature;humidity
9271;DHT22;4673;53.458;9.940;2022-12-18T00:22:03;-5.30;85.40
9271;DHT22;4673;53.458;9.940;2022-12-18T00:25:14;-5.30;85.50
9271;DHT22;4673;53.458;9.940;2022-12-18T00:32:15;-5.30;85.60
9271;DHT22;4673;53.458;9.940;2022-12-18T00:34:56;-5.30;85.60
9271;DHT22;4673;53.458;9.940;2022-12-18T00:37:52;-5.20;85.60
9271;DHT22;4673;53.458;9.940;2022-12-18T00:41:02;-5.20;85.40
9271;DHT22;4673;53.458;9.940;2022-12-18T00:44:00;-5.10;85.20
9271;DHT22;4673;53.458;9.940;2022-12-18T00:47:27;-5.10;85.10
9271;DHT22;4673;53.458;9.940;2022-12-18T00:50:08;-5.20;85.00
9271;DHT22;4673;53.458;9.940;2022-12-18T00:52:56;-5.20;84.90
9271;DHT22;4673;53.458;9.940;2022-12-18T00:56:03;-5.10;84.80
9271;DHT22;4673;53.458;9.940;2022-12-18T00:59:38;-5.20;84.70
9271;DHT22;4673;53.458;9.940;2022-12-18T01:09:27;-5.20;84.60
9271;DHT22;4673;53.458;9.940;2022-12-18T01:15:24;-5.00;84.40
9271;DHT22;4673;53.458;9.940;2022-12-18T01:17:52;-5.10;84.20
9271;DHT22;4673;53.458;9.940;2022-12-18T01:20:18;-5.20;84.00
9271;DHT22;4673;53.458;9.940;2022-12-18T01:22:43;-5.20;84.00
9271;DHT22;4673;53.458;9.940;2022-12-18T01:25:09;-5.20;84.00
9271;DHT22;4673;53.458;9.940;2022-12-18T01:27:35;-5.20;83.90
9271;DHT22;4673;53.458;9.940;2022-12-18T01:30:00;-5.30;83.70
9271;DHT22;4673;53.458;9.940;2022-12-18T01:32:28;-5.30;83.80
9271;DHT22;4673;53.458;9.940;2022-12-18T01:34:54;-5.30;84.00
9271;DHT22;4673;53.458;9.940;2022-12-18T01:37:20;-5.30;83.90
9271;DHT22;4673;53.458;9.940;2022-12-18T01:39:45;-5.30;83.80
9271;DHT22;4673;53.458;9.940;2022-12-18T01:42:13;-5.30;83.80
9271;DHT22;4673;53.458;9.940;2022-12-18T01:44:58;-5.30;83.70
9271;DHT22;4673;53.458;9.940;2022-12-18T01:47:50;-5.30;83.60
9271;DHT22;4673;53.458;9.940;2022-12-18T01:50:22;-5.40;83.30
9271;DHT22;4673;53.458;9.940;2022-12-18T01:52:52;-5.40;83.30
9271;DHT22;4673;53.458;9.940;2022-12-18T01:55:22;-5.50;83.40
9271;DHT22;4673;53.458;9.940;2022-12-18T01:57:51;-5.50;83.50
9271;DHT22;4673;53.458;9.940;2022-12-18T02:00:21;-5.60;83.30
9271;DHT22;4673;53.458;9.940;2022-12-18T02:02:47;-5.70;83.20
9271;DHT22;4673;53.458;9.940;2022-12-18T02:05:21;-5.80;83.20
9271;DHT22;4673;53.458;9.940;2022-12-18T02:10:24;-5.90;83.30
9271;DHT22;4673;53.458;9.940;2022-12-18T02:18:21;-5.90;84.10
9271;DHT22;4673;53.458;9.940;2022-12-18T02:21:20;-5.90;84.10
9271;DHT22;4673;53.458;9.940;2022-12-18T02:24:17;-5.90;84.20
9271;DHT22;4673;53.458;9.940;2022-12-18T02:26:50;-5.80;84.40
9271;DHT22;4673;53.458;9.940;2022-12-18T02:29:39;-5.80;84.30
9271;DHT22;4673;53.458;9.940;2022-12-18T02:32:11;-5.80;84.20
9271;DHT22;4673;53.458;9.940;2022-12-18T02:34:40;-5.80;84.30
9271;DHT22;4673;53.458;9.940;2022-12-18T02:37:09;-5.80;84.20
9271;DHT22;4673;53.458;9.940;2022-12-18T02:39:38;-5.90;84.20
9271;DHT22;4673;53.458;9.940;2022-12-18T02:42:04;-5.90;84.50
9271;DHT22;4673;53.458;9.940;2022-12-18T02:44:47;-5.90;84.40
9271;DHT22;4673;53.458;9.940;2022-12-18T02:47:15;-5.90;84.50
9271;DHT22;4673;53.458;9.940;2022-12-18T02:49:49;-6.00;84.30
9271;DHT22;4673;53.458;9.940;2022-12-18T02:57:54;-6.10;84.60
9271;DHT22;4673;53.458;9.940;2022-12-18T03:05:53;-6.10;84.70
9271;DHT22;4673;53.458;9.940;2022-12-18T03:08:24;-6.10;84.70
9271;DHT22;4673;53.458;9.940;2022-12-18T03:11:05;-6.10;84.90
9271;DHT22;4673;53.458;9.940;2022-12-18T03:13:54;-6.10;84.90
9271;DHT22;4673;53.458;9.940;2022-12-18T03:16:28;-6.00;84.90
9271;DHT22;4673;53.458;9.940;2022-12-18T03:19:01;-6.00;84.60
9271;DHT22;4673;53.458;9.940;2022-12-18T03:21:34;-6.00;84.60
9271;DHT22;4673;53.458;9.940;2022-12-18T03:24:06;-6.00;84.50
9271;DHT22;4673;53.458;9.940;2022-12-18T03:26:33;-6.00;84.30
9271;DHT22;4673;53.458;9.940;2022-12-18T03:29:04;-6.00;84.30
9271;DHT22;4673;53.458;9.940;2022-12-18T03:31:32;-6.00;84.20
9271;DHT22;4673;53.458;9.940;2022-12-18T03:34:01;-6.00;83.90
9271;DHT22;4673;53.458;9.940;2022-12-18T03:36:27;-6.10;83.60
9271;DHT22;4673;53.458;9.940;2022-12-18T03:38:53;-6.20;83.50
9271;DHT22;4673;53.458;9.940;2022-12-18T03:41:38;-6.30;83.40
9271;DHT22;4673;53.458;9.940;2022-12-18T03:44:15;-6.40;83.50
9271;DHT22;4673;53.458;9.940;2022-12-18T03:54:51;-6.70;83.70
9271;DHT22;4673;53.458;9.940;2022-12-18T03:57:20;-6.70;83.80
9271;DHT22;4673;53.458;9.940;2022-12-18T03:59:49;-6.70;84.10
9271;DHT22;4673;53.458;9.940;2022-12-18T04:02:17;-6.70;84.10
9271;DHT22;4673;53.458;9.940;2022-12-18T04:04:44;-6.70;84.10
9271;DHT22;4673;53.458;9.940;2022-12-18T04:07:13;-6.70;84.30
9271;DHT22;4673;53.458;9.940;2022-12-18T04:09:41;-6.70;84.40
9271;DHT22;4673;53.458;9.940;2022-12-18T04:12:08;-6.70;84.50
9271;DHT22;4673;53.458;9.940;2022-12-18T04:14:34;-6.80;84.30
9271;DHT22;4673;53.458;9.940;2022-12-18T04:17:01;-6.80;84.50
9271;DHT22;4673;53.458;9.940;2022-12-18T04:19:28;-6.80;84.60
9271;DHT22;4673;53.458;9.940;2022-12-18T04:21:53;-6.80;84.60
9271;DHT22;4673;53.458;9.940;2022-12-18T04:24:19;-6.80;84.60
9271;DHT22;4673;53.458;9.940;2022-12-18T04:26:45;-6.90;84.60
9271;DHT22;4673;53.458;9.940;2022-12-18T04:29:11;-6.90;84.60
9271;DHT22;4673;53.458;9.940;2022-12-18T04:31:36;-7.00;84.50
9271;DHT22;4673;53.458;9.940;2022-12-18T04:34:02;-7.00;84.50
9271;DHT22;4673;53.458;9.940;2022-12-18T04:36:28;-7.10;84.60
9271;DHT22;4673;53.458;9.940;2022-12-18T04:38:54;-7.10;84.70
9271;DHT22;4673;53.458;9.940;2022-12-18T04:41:19;-7.10;84.80
9271;DHT22;4673;53.458;9.940;2022-12-18T04:43:45;-7.10;85.00
9271;DHT22;4673;53.458;9.940;2022-12-18T04:46:11;-7.10;85.10
9271;DHT22;4673;53.458;9.940;2022-12-18T04:48:37;-7.20;85.00
9271;DHT22;4673;53.458;9.940;2022-12-18T04:51:04;-7.20;85.00
9271;DHT22;4673;53.458;9.940;2022-12-18T04:53:30;-7.20;85.10
9271;DHT22;4673;53.458;9.940;2022-12-18T04:56:10;-7.20;85.30
9271;DHT22;4673;53.458;9.940;2022-12-18T04:58:37;-7.10;85.60
9271;DHT22;4673;53.458;9.940;2022-12-18T05:01:03;-7.20;85.10
9271;DHT22;4673;53.458;9.940;2022-12-18T05:03:28;-7.30;85.10
9271;DHT22;4673;53.458;9.940;2022-12-18T05:05:54;-7.30;85.10
9271;DHT22;4673;53.458;9.940;2022-12-18T05:08:20;-7.40;85.10
9271;DHT22;4673;53.458;9.940;2022-12-18T05:10:46;-7.40;85.10
9271;DHT22;4673;53.458;9.940;2022-12-18T05:13:11;-7.50;85.20
9271;DHT22;4673;53.458;9.940;2022-12-18T05:15:37;-7.50;85.30
9271;DHT22;4673;53.458;9.940;2022-12-18T05:18:03;-7.50;85.60
9271;DHT22;4673;53.458;9.940;2022-12-18T05:20:29;-7.40;85.70
9271;DHT22;4673;53.458;9.940;2022-12-18T05:22:55;-7.40;85.70
9271;DHT22;4673;53.458;9.940;2022-12-18T05:25:22;-7.40;85.80
9271;DHT22;4673;53.458;9.940;2022-12-18T05:27:48;-7.40;85.90
9271;DHT22;4673;53.458;9.940;2022-12-18T05:30:14;-7.40;85.80
9271;DHT22;4673;53.458;9.940;2022-12-18T05:32:40;-7.30;85.90
9271;DHT22;4673;53.458;9.940;2022-12-18T05:35:08;-7.40;85.70
9271;DHT22;4673;53.458;9.940;2022-12-18T05:37:34;-7.40;85.80
9271;DHT22;4673;53.458;9.940;2022-12-18T05:40:00;-7.40;85.80
9271;DHT22;4673;53.458;9.940;2022-12-18T05:42:26;-7.40;85.60
9271;DHT22;4673;53.458;9.940;2022-12-18T05:44:52;-7.50;85.40
9271;DHT22;4673;53.458;9.940;2022-12-18T05:47:17;-7.50;85.70
9271;DHT22;4673;53.458;9.940;2022-12-18T05:49:43;-7.50;85.80
9271;DHT22;4673;53.458;9.940;2022-12-18T05:52:08;-7.40;85.70
9271;DHT22;4673;53.458;9.940;2022-12-18T05:54:35;-7.50;85.70
9271;DHT22;4673;53.458;9.940;2022-12-18T05:57:00;-7.40;85.70
9271;DHT22;4673;53.458;9.940;2022-12-18T05:59:26;-7.50;85.70
9271;DHT22;4673;53.458;9.940;2022-12-18T06:01:51;-7.50;85.50
9271;DHT22;4673;53.458;9.940;2022-12-18T06:04:17;-7.50;85.60
9271;DHT22;4673;53.458;9.940;2022-12-18T06:06:43;-7.50;85.60
9271;DHT22;4673;53.458;9.940;2022-12-18T06:09:08;-7.60;85.60
9271;DHT22;4673;53.458;9.940;2022-12-18T06:11:36;-7.50;85.70
9271;DHT22;4673;53.458;9.940;2022-12-18T06:14:03;-7.60;85.50
9271;DHT22;4673;53.458;9.940;2022-12-18T06:16:30;-7.60;85.60
9271;DHT22;4673;53.458;9.940;2022-12-18T06:18:57;-7.60;85.60
9271;DHT22;4673;53.458;9.940;2022-12-18T06:21:23;-7.60;85.60
9271;DHT22;4673;53.458;9.940;2022-12-18T06:23:48;-7.50;86.00
9271;DHT22;4673;53.458;9.940;2022-12-18T06:26:14;-7.50;85.80
9271;DHT22;4673;53.458;9.940;2022-12-18T06:28:40;-7.50;85.80
9271;DHT22;4673;53.458;9.940;2022-12-18T06:31:07;-7.40;85.70
9271;DHT22;4673;53.458;9.940;2022-12-18T06:33:33;-7.50;85.70
9271;DHT22;4673;53.458;9.940;2022-12-18T06:36:07;-7.40;85.70
9271;DHT22;4673;53.458;9.940;2022-12-18T06:38:35;-7.40;85.70
9271;DHT22;4673;53.458;9.940;2022-12-18T06:41:00;-7.40;85.60
9271;DHT22;4673;53.458;9.940;2022-12-18T06:43:31;-7.40;85.40
9271;DHT22;4673;53.458;9.940;2022-12-18T06:46:00;-7.60;85.10
9271;DHT22;4673;53.458;9.940;2022-12-18T06:48:26;-7.60;85.10
9271;DHT22;4673;53.458;9.940;2022-12-18T06:50:52;-7.60;85.30
9271;DHT22;4673;53.458;9.940;2022-12-18T06:53:18;-7.60;85.60
9271;DHT22;4673;53.458;9.940;2022-12-18T06:55:43;-7.60;85.60
9271;DHT22;4673;53.458;9.940;2022-12-18T06:58:09;-7.50;85.80
9271;DHT22;4673;53.458;9.940;2022-12-18T07:00:35;-7.50;85.70
9271;DHT22;4673;53.458;9.940;2022-12-18T07:03:00;-7.60;85.60
9271;DHT22;4673;53.458;9.940;2022-12-18T07:05:26;-7.60;85.60
9271;DHT22;4673;53.458;9.940;2022-12-18T07:07:52;-7.60;85.50
9271;DHT22;4673;53.458;9.940;2022-12-18T07:10:17;-7.60;85.70
9271;DHT22;4673;53.458;9.940;2022-12-18T07:12:43;-7.60;85.80
9271;DHT22;4673;53.458;9.940;2022-12-18T07:15:09;-7.60;85.60
9271;DHT22;4673;53.458;9.940;2022-12-18T07:17:35;-7.60;85.70
9271;DHT22;4673;53.458;9.940;2022-12-18T07:20:00;-7.70;85.90
9271;DHT22;4673;53.458;9.940;2022-12-18T07:22:26;-7.60;86.00
9271;DHT22;4673;53.458;9.940;2022-12-18T07:24:52;-7.60;85.90
9271;DHT22;4673;53.458;9.940;2022-12-18T07:27:18;-7.70;85.90
9271;DHT22;4673;53.458;9.940;2022-12-18T07:29:44;-7.70;86.00
9271;DHT22;4673;53.458;9.940;2022-12-18T07:32:09;-7.70;86.10
9271;DHT22;4673;53.458;9.940;2022-12-18T07:34:35;-7.70;86.20
9271;DHT22;4673;53.458;9.940;2022-12-18T07:37:00;-7.70;86.20
9271;DHT22;4673;53.458;9.940;2022-12-18T07:39:26;-7.70;86.30
9271;DHT22;4673;53.458;9.940;2022-12-18T07:41:52;-7.70;86.30
9271;DHT22;4673;53.458;9.940;2022-12-18T07:44:36;-7.70;86.30
9271;DHT22;4673;53.458;9.940;2022-12-18T07:47:02;-7.60;86.40
9271;DHT22;4673;53.458;9.940;2022-12-18T07:49:28;-7.60;86.40
9271;DHT22;4673;53.458;9.940;2022-12-18T07:51:55;-7.60;86.30
9271;DHT22;4673;53.458;9.940;2022-12-18T07:54:22;-7.50;86.50
9271;DHT22;4673;53.458;9.940;2022-12-18T07:56:48;-7.50;86.50
9271;DHT22;4673;53.458;9.940;2022-12-18T07:59:13;-7.50;86.40
9271;DHT22;4673;53.458;9.940;2022-12-18T08:01:39;-7.40;86.40
9271;DHT22;4673;53.458;9.940;2022-12-18T08:04:05;-7.40;86.40
9271;DHT22;4673;53.458;9.940;2022-12-18T08:06:30;-7.30;86.50
9271;DHT22;4673;53.458;9.940;2022-12-18T08:08:56;-7.30;86.60
9271;DHT22;4673;53.458;9.940;2022-12-18T08:11:24;-7.30;86.50
9271;DHT22;4673;53.458;9.940;2022-12-18T08:13:50;-7.20;86.40
9271;DHT22;4673;53.458;9.940;2022-12-18T08:16:16;-7.10;86.50
9271;DHT22;4673;53.458;9.940;2022-12-18T08:18:42;-7.10;86.40
9271;DHT22;4673;53.458;9.940;2022-12-18T08:21:13;-7.00;86.50
9271;DHT22;4673;53.458;9.940;2022-12-18T08:23:39;-6.90;86.40
9271;DHT22;4673;53.458;9.940;2022-12-18T08:26:05;-6.90;86.40
9271;DHT22;4673;53.458;9.940;2022-12-18T08:28:31;-6.80;86.10
9271;DHT22;4673;53.458;9.940;2022-12-18T08:30:57;-6.80;85.90
9271;DHT22;4673;53.458;9.940;2022-12-18T08:33:23;-6.70;85.90
9271;DHT22;4673;53.458;9.940;2022-12-18T08:35:48;-6.70;85.80
9271;DHT22;4673;53.458;9.940;2022-12-18T08:38:14;-6.60;85.70
9271;DHT22;4673;53.458;9.940;2022-12-18T08:40:40;-6.60;85.60
9271;DHT22;4673;53.458;9.940;2022-12-18T08:43:06;-6.50;85.60
9271;DHT22;4673;53.458;9.940;2022-12-18T08:45:51;-6.50;85.50
9271;DHT22;4673;53.458;9.940;2022-12-18T08:48:17;-6.50;85.30
9271;DHT22;4673;53.458;9.940;2022-12-18T08:50:43;-6.40;85.30
9271;DHT22;4673;53.458;9.940;2022-12-18T08:53:08;-6.30;85.40
9271;DHT22;4673;53.458;9.940;2022-12-18T08:55:34;-6.20;85.20
9271;DHT22;4673;53.458;9.940;2022-12-18T08:58:00;-6.20;84.90
9271;DHT22;4673;53.458;9.940;2022-12-18T09:00:25;-6.10;84.70
9271;DHT22;4673;53.458;9.940;2022-12-18T09:02:51;-6.20;84.60
9271;DHT22;4673;53.458;9.940;2022-12-18T09:05:17;-6.10;84.70
9271;DHT22;4673;53.458;9.940;2022-12-18T09:07:42;-6.00;84.80
9271;DHT22;4673;53.458;9.940;2022-12-18T09:10:08;-5.90;84.80
9271;DHT22;4673;53.458;9.940;2022-12-18T09:12:34;-5.80;84.70
9271;DHT22;4673;53.458;9.940;2022-12-18T09:14:59;-5.80;84.50
9271;DHT22;4673;53.458;9.940;2022-12-18T09:17:25;-5.70;84.50
9271;DHT22;4673;53.458;9.940;2022-12-18T09:19:51;-5.70;84.20
9271;DHT22;4673;53.458;9.940;2022-12-18T09:22:17;-5.50;84.30
9271;DHT22;4673;53.458;9.940;2022-12-18T09:24:42;-5.50;84.00
9271;DHT22;4673;53.458;9.940;2022-12-18T09:27:08;-5.40;83.80
9271;DHT22;4673;53.458;9.940;2022-12-18T09:29:34;-5.40;83.70
9271;DHT22;4673;53.458;9.940;2022-12-18T09:31:59;-5.30;83.50
9271;DHT22;4673;53.458;9.940;2022-12-18T09:34:25;-5.20;83.30
9271;DHT22;4673;53.458;9.940;2022-12-18T09:36:50;-5.20;83.20
9271;DHT22;4673;53.458;9.940;2022-12-18T09:39:16;-5.20;83.00
9271;DHT22;4673;53.458;9.940;2022-12-18T09:41:52;-5.10;82.90
9271;DHT22;4673;53.458;9.940;2022-12-18T09:44:35;-5.00;82.70
9271;DHT22;4673;53.458;9.940;2022-12-18T09:47:27;-4.90;82.70
9271;DHT22;4673;53.458;9.940;2022-12-18T09:50:15;-4.80;82.20
9271;DHT22;4673;53.458;9.940;2022-12-18T09:52:45;-4.80;81.80
9271;DHT22;4673;53.458;9.940;2022-12-18T09:55:23;-4.70;81.90
9271;DHT22;4673;53.458;9.940;2022-12-18T09:57:55;-4.60;81.70
9271;DHT22;4673;53.458;9.940;2022-12-18T10:00:23;-4.50;81.70
9271;DHT22;4673;53.458;9.940;2022-12-18T10:02:52;-4.40;81.20
9271;DHT22;4673;53.458;9.940;2022-12-18T10:05:32;-4.40;80.90
9271;DHT22;4673;53.458;9.940;2022-12-18T10:10:53;-4.20;80.50
9271;DHT22;4673;53.458;9.940;2022-12-18T10:18:52;-4.00;80.10
9271;DHT22;4673;53.458;9.940;2022-12-18T10:21:26;-3.80;79.80
9271;DHT22;4673;53.458;9.940;2022-12-18T10:27:24;-3.60;78.90
9271;DHT22;4673;53.458;9.940;2022-12-18T10:29:50;-3.50;78.70
9271;DHT22;4673;53.458;9.940;2022-12-18T10:32:28;-3.40;78.50
9271;DHT22;4673;53.458;9.940;2022-12-18T10:34:56;-3.40;78.20
9271;DHT22;4673;53.458;9.940;2022-12-18T10:37:25;-3.30;77.90
9271;DHT22;4673;53.458;9.940;2022-12-18T10:42:35;-3.20;77.10
9271;DHT22;4673;53.458;9.940;2022-12-18T10:45:14;-3.10;77.00
9271;DHT22;4673;53.458;9.940;2022-12-18T10:47:49;-3.10;76.40
9271;DHT22;4673;53.458;9.940;2022-12-18T10:50:26;-3.00;76.10
9271;DHT22;4673;53.458;9.940;2022-12-18T10:52:59;-2.90;75.90
9271;DHT22;4673;53.458;9.940;2022-12-18T10:55:39;-2.90;75.50
9271;DHT22;4673;53.458;9.940;2022-12-18T10:58:30;-2.80;75.30
9271;DHT22;4673;53.458;9.940;2022-12-18T11:01:15;-2.70;74.80
9271;DHT22;4673;53.458;9.940;2022-12-18T11:06:24;-2.60;74.50
9271;DHT22;4673;53.458;9.940;2022-12-18T11:09:58;-2.50;74.40
9271;DHT22;4673;53.458;9.940;2022-12-18T11:11:56;-2.50;74.00
9271;DHT22;4673;53.458;9.940;2022-12-18T11:14:28;-2.50;74.00
9271;DHT22;4673;53.458;9.940;2022-12-18T11:16:55;-2.50;73.90
9271;DHT22;4673;53.458;9.940;2022-12-18T11:19:36;-2.40;73.80
9271;DHT22;4673;53.458;9.940;2022-12-18T11:22:26;-2.40;73.70
9271;DHT22;4673;53.458;9.940;2022-12-18T11:24:59;-2.40;73.80
9271;DHT22;4673;53.458;9.940;2022-12-18T11:27:27;-2.40;73.60
9271;DHT22;4673;53.458;9.940;2022-12-18T11:30:20;-2.30;73.70
9271;DHT22;4673;53.458;9.940;2022-12-18T11:35:50;-2.30;73.60
9271;DHT22;4673;53.458;9.940;2022-12-18T11:38:26;-2.20;73.00
9271;DHT22;4673;53.458;9.940;2022-12-18T11:41:00;-2.20;73.20
9271;DHT22;4673;53.458;9.940;2022-12-18T11:43:38;-2.20;73.20
9271;DHT22;4673;53.458;9.940;2022-12-18T11:46:10;-2.10;73.40
9271;DHT22;4673;53.458;9.940;2022-12-18T11:48:52;-2.10;73.40
9271;DHT22;4673;53.458;9.940;2022-12-18T11:51:31;-2.10;73.20
9271;DHT22;4673;53.458;9.940;2022-12-18T11:54:00;-2.00;73.50
9271;DHT22;4673;53.458;9.940;2022-12-18T11:56:32;-1.90;73.40
9271;DHT22;4673;53.458;9.940;2022-12-18T12:21:45;-1.50;71.60
9271;DHT22;4673;53.458;9.940;2022-12-18T12:24:36;-1.50;71.80
9271;DHT22;4673;53.458;9.940;2022-12-18T12:30:07;-1.50;72.50
9271;DHT22;4673;53.458;9.940;2022-12-18T12:35:42;-1.50;72.80
9271;DHT22;4673;53.458;9.940;2022-12-18T12:38:28;-1.60;73.00
9271;DHT22;4673;53.458;9.940;2022-12-18T12:41:02;-1.60;73.30
9271;DHT22;4673;53.458;9.940;2022-12-18T12:43:41;-1.60;73.40
9271;DHT22;4673;53.458;9.940;2022-12-18T12:46:10;-1.60;73.50
9271;DHT22;4673;53.458;9.940;2022-12-18T12:51:17;-1.60;73.50
9271;DHT22;4673;53.458;9.940;2022-12-18T12:53:44;-1.60;73.40
9271;DHT22;4673;53.458;9.940;2022-12-18T12:56:14;-1.60;73.40
9271;DHT22;4673;53.458;9.940;2022-12-18T12:59:08;-1.70;73.10
9271;DHT22;4673;53.458;9.940;2022-12-18T13:04:56;-1.80;72.80
9271;DHT22;4673;53.458;9.940;2022-12-18T13:07:36;-1.90;73.00
9271;DHT22;4673;53.458;9.940;2022-12-18T13:25:54;-2.00;73.20
9271;DHT22;4673;53.458;9.940;2022-12-18T13:34:24;-2.40;72.90
9271;DHT22;4673;53.458;9.940;2022-12-18T13:36:53;-2.50;73.20
9271;DHT22;4673;53.458;9.940;2022-12-18T13:41:51;-2.70;73.50
9271;DHT22;4673;53.458;9.940;2022-12-18T13:44:31;-2.80;73.80
9271;DHT22;4673;53.458;9.940;2022-12-18T13:47:02;-2.80;74.00
9271;DHT22;4673;53.458;9.940;2022-12-18T13:49:41;-2.90;74.40
9271;DHT22;4673;53.458;9.940;2022-12-18T13:52:26;-3.00;74.60
9271;DHT22;4673;53.458;9.940;2022-12-18T13:54:56;-3.00;74.90
9271;DHT22;4673;53.458;9.940;2022-12-18T13:57:29;-3.10;75.00
9271;DHT22;4673;53.458;9.940;2022-12-18T13:59:55;-3.20;75.10
9271;DHT22;4673;53.458;9.940;2022-12-18T14:02:27;-3.20;75.40
9271;DHT22;4673;53.458;9.940;2022-12-18T14:04:54;-3.30;75.50
9271;DHT22;4673;53.458;9.940;2022-12-18T14:07:25;-3.30;75.80
9271;DHT22;4673;53.458;9.940;2022-12-18T14:09:59;-3.30;76.00
9271;DHT22;4673;53.458;9.940;2022-12-18T14:12:31;-3.40;76.00
9271;DHT22;4673;53.458;9.940;2022-12-18T14:17:52;-3.40;76.20
9271;DHT22;4673;53.458;9.940;2022-12-18T14:20:18;-3.40;76.30
9271;DHT22;4673;53.458;9.940;2022-12-18T14:22:45;-3.40;76.40
9271;DHT22;4673;53.458;9.940;2022-12-18T14:27:42;-3.50;76.30
9271;DHT22;4673;53.458;9.940;2022-12-18T14:35:33;-3.70;76.10
9271;DHT22;4673;53.458;9.940;2022-12-18T14:38:21;-3.80;76.20
9271;DHT22;4673;53.458;9.940;2022-12-18T14:40:51;-3.80;76.40
9271;DHT22;4673;53.458;9.940;2022-12-18T14:43:17;-3.80;76.60
9271;DHT22;4673;53.458;9.940;2022-12-18T14:45:44;-3.90;76.60
9271;DHT22;4673;53.458;9.940;2022-12-18T14:48:16;-3.90;76.80
9271;DHT22;4673;53.458;9.940;2022-12-18T14:50:43;-3.90;76.90
9271;DHT22;4673;53.458;9.940;2022-12-18T14:53:22;-3.90;77.00
9271;DHT22;4673;53.458;9.940;2022-12-18T14:55:48;-3.90;77.10
9271;DHT22;4673;53.458;9.940;2022-12-18T14:58:16;-3.90;77.20
9271;DHT22;4673;53.458;9.940;2022-12-18T15:00:43;-4.00;77.20
9271;DHT22;4673;53.458;9.940;2022-12-18T15:03:09;-4.00;77.30
9271;DHT22;4673;53.458;9.940;2022-12-18T15:05:36;-4.10;77.30
9271;DHT22;4673;53.458;9.940;2022-12-18T15:08:02;-4.10;77.60
9271;DHT22;4673;53.458;9.940;2022-12-18T15:10:34;-4.20;77.70
9271;DHT22;4673;53.458;9.940;2022-12-18T15:20:24;-4.30;78.30
9271;DHT22;4673;53.458;9.940;2022-12-18T15:22:50;-4.40;78.40
9271;DHT22;4673;53.458;9.940;2022-12-18T15:25:36;-4.40;78.60
9271;DHT22;4673;53.458;9.940;2022-12-18T15:28:04;-4.50;78.80
9271;DHT22;4673;53.458;9.940;2022-12-18T15:31:20;-4.50;79.00
9271;DHT22;4673;53.458;9.940;2022-12-18T15:36:19;-4.50;79.50
9271;DHT22;4673;53.458;9.940;2022-12-18T15:38:49;-4.50;79.70
9271;DHT22;4673;53.458;9.940;2022-12-18T15:41:17;-4.50;79.80
9271;DHT22;4673;53.458;9.940;2022-12-18T15:43:43;-4.50;79.90
9271;DHT22;4673;53.458;9.940;2022-12-18T15:46:14;-4.40;80.10
9271;DHT22;4673;53.458;9.940;2022-12-18T15:48:42;-4.30;80.20
9271;DHT22;4673;53.458;9.940;2022-12-18T15:51:17;-4.40;80.10
9271;DHT22;4673;53.458;9.940;2022-12-18T15:53:44;-4.30;80.20
9271;DHT22;4673;53.458;9.940;2022-12-18T15:56:11;-4.30;80.20
9271;DHT22;4673;53.458;9.940;2022-12-18T15:58:56;-4.30;80.20
9271;DHT22;4673;53.458;9.940;2022-12-18T16:01:23;-4.30;80.30
9271;DHT22;4673;53.458;9.940;2022-12-18T16:03:50;-4.20;80.40
9271;DHT22;4673;53.458;9.940;2022-12-18T16:06:16;-4.20;80.30
9271;DHT22;4673;53.458;9.940;2022-12-18T16:08:41;-4.20;80.30
9271;DHT22;4673;53.458;9.940;2022-12-18T16:13:45;-4.10;80.50
9271;DHT22;4673;53.458;9.940;2022-12-18T16:16:11;-4.10;80.50
9271;DHT22;4673;53.458;9.940;2022-12-18T16:18:36;-4.10;80.50
9271;DHT22;4673;53.458;9.940;2022-12-18T16:21:02;-4.10;80.50
9271;DHT22;4673;53.458;9.940;2022-12-18T16:23:28;-4.10;80.50
9271;DHT22;4673;53.458;9.940;2022-12-18T16:25:54;-4.10;80.60
9271;DHT22;4673;53.458;9.940;2022-12-18T16:28:20;-4.10;80.60
9271;DHT22;4673;53.458;9.940;2022-12-18T16:30:46;-4.00;80.60
9271;DHT22;4673;53.458;9.940;2022-12-18T16:33:11;-4.00;80.70
9271;DHT22;4673;53.458;9.940;2022-12-18T16:35:37;-4.00;80.60
9271;DHT22;4673;53.458;9.940;2022-12-18T16:38:03;-4.00;80.70
9271;DHT22;4673;53.458;9.940;2022-12-18T16:40:31;-4.00;80.80
9271;DHT22;4673;53.458;9.940;2022-12-18T16:42:57;-4.10;80.80
9271;DHT22;4673;53.458;9.940;2022-12-18T16:45:23;-4.10;81.00
9271;DHT22;4673;53.458;9.940;2022-12-18T16:47:48;-4.00;81.10
9271;DHT22;4673;53.458;9.940;2022-12-18T16:50:14;-4.00;81.00
9271;DHT22;4673;53.458;9.940;2022-12-18T16:52:40;-4.10;81.20
9271;DHT22;4673;53.458;9.940;2022-12-18T16:55:06;-4.00;81.20
9271;DHT22;4673;53.458;9.940;2022-12-18T16:57:32;-4.00;81.30
9271;DHT22;4673;53.458;9.940;2022-12-18T16:59:58;-4.00;81.30
9271;DHT22;4673;53.458;9.940;2022-12-18T17:02:25;-4.00;81.30
9271;DHT22;4673;53.458;9.940;2022-12-18T17:04:55;-4.00;81.30
9271;DHT22;4673;53.458;9.940;2022-12-18T17:07:22;-4.00;81.30
9271;DHT22;4673;53.458;9.940;2022-12-18T17:09:48;-4.00;81.30
9271;DHT22;4673;53.458;9.940;2022-12-18T17:12:15;-4.00;81.30
9271;DHT22;4673;53.458;9.940;2022-12-18T17:14:41;-3.90;81.50
9271;DHT22;4673;53.458;9.940;2022-12-18T17:17:07;-3.90;81.40
9271;DHT22;4673;53.458;9.940;2022-12-18T17:19:32;-3.90;81.30
9271;DHT22;4673;53.458;9.940;2022-12-18T17:21:58;-4.00;81.20
9271;DHT22;4673;53.458;9.940;2022-12-18T17:24:24;-3.90;81.40
9271;DHT22;4673;53.458;9.940;2022-12-18T17:26:50;-3.90;81.30
9271;DHT22;4673;53.458;9.940;2022-12-18T17:29:17;-3.90;81.30
9271;DHT22;4673;53.458;9.940;2022-12-18T17:31:44;-3.90;81.30
9271;DHT22;4673;53.458;9.940;2022-12-18T17:34:10;-3.90;81.40
9271;DHT22;4673;53.458;9.940;2022-12-18T17:36:37;-3.90;81.50
9271;DHT22;4673;53.458;9.940;2022-12-18T17:39:03;-3.80;81.30
9271;DHT22;4673;53.458;9.940;2022-12-18T17:41:30;-3.80;81.10
9271;DHT22;4673;53.458;9.940;2022-12-18T17:43:58;-3.90;81.10
9271;DHT22;4673;53.458;9.940;2022-12-18T17:46:26;-3.80;81.00
9271;DHT22;4673;53.458;9.940;2022-12-18T17:48:54;-3.80;80.90
9271;DHT22;4673;53.458;9.940;2022-12-18T17:51:20;-3.90;80.80
9271;DHT22;4673;53.458;9.940;2022-12-18T17:53:46;-3.80;80.70
9271;DHT22;4673;53.458;9.940;2022-12-18T17:56:13;-3.80;80.60
9271;DHT22;4673;53.458;9.940;2022-12-18T17:58:39;-3.80;80.40
9271;DHT22;4673;53.458;9.940;2022-12-18T18:01:06;-3.80;80.50
9271;DHT22;4673;53.458;9.940;2022-12-18T18:03:33;-3.80;80.40
9271;DHT22;4673;53.458;9.940;2022-12-18T18:06:00;-3.80;80.30
9271;DHT22;4673;53.458;9.940;2022-12-18T18:08:27;-3.80;80.10
9271;DHT22;4673;53.458;9.940;2022-12-18T18:10:53;-3.80;80.00
9271;DHT22;4673;53.458;9.940;2022-12-18T18:13:24;-3.80;79.90
9271;DHT22;4673;53.458;9.940;2022-12-18T18:16:09;-3.80;79.90
9271;DHT22;4673;53.458;9.940;2022-12-18T18:18:36;-3.80;79.80
9271;DHT22;4673;53.458;9.940;2022-12-18T18:21:06;-3.70;79.80
9271;DHT22;4673;53.458;9.940;2022-12-18T18:23:33;-3.70;79.70
9271;DHT22;4673;53.458;9.940;2022-12-18T18:26:06;-3.70;79.60
9271;DHT22;4673;53.458;9.940;2022-12-18T18:28:34;-3.70;79.40
9271;DHT22;4673;53.458;9.940;2022-12-18T18:31:04;-3.70;79.30
9271;DHT22;4673;53.458;9.940;2022-12-18T18:33:30;-3.60;79.20
9271;DHT22;4673;53.458;9.940;2022-12-18T18:35:56;-3.70;79.00
9271;DHT22;4673;53.458;9.940;2022-12-18T18:38:21;-3.70;78.80
9271;DHT22;4673;53.458;9.940;2022-12-18T18:40:47;-3.70;78.80
9271;DHT22;4673;53.458;9.940;2022-12-18T18:43:13;-3.70;78.70
9271;DHT22;4673;53.458;9.940;2022-12-18T18:45:38;-3.70;78.60
9271;DHT22;4673;53.458;9.940;2022-12-18T18:48:04;-3.60;78.50
9271;DHT22;4673;53.458;9.940;2022-12-18T18:50:30;-3.70;78.30
9271;DHT22;4673;53.458;9.940;2022-12-18T18:52:56;-3.70;78.20
9271;DHT22;4673;53.458;9.940;2022-12-18T18:55:21;-3.70;78.30
9271;DHT22;4673;53.458;9.940;2022-12-18T18:57:47;-3.70;78.20
9271;DHT22;4673;53.458;9.940;2022-12-18T19:00:13;-3.70;78.20
9271;DHT22;4673;53.458;9.940;2022-12-18T19:02:39;-3.60;78.10
9271;DHT22;4673;53.458;9.940;2022-12-18T19:05:05;-3.60;78.10
9271;DHT22;4673;53.458;9.940;2022-12-18T19:07:31;-3.60;78.10